Minden, West Virginia
Current Conditions -  °F | °C
As of 1:51 AM on Tuesday 21 Oct 2014 (Local Time) from KBKW Reporting Station
Few Clouds Few Clouds  
Wind Chill: 45°   Ceiling: Unl
Heat Index: 49°   Visibility: 10mi
Dew Point: 44°   Wind: 8mph
Humidity: 83%   Direction: 220°SW
Pressure: 29.95"   Gusts: NA
Location:  37.98°N, 81.12°W
Report Text: KBKW 210551Z AUTO 22007KT 10SM FEW035 09/07 A2995 RMK AO2 SLP133 60001 T00940067 10111 20094 58009 TSNO
Loading
Personal Weather Stations






























Interactive Weather Map
Tropical Storm Tracking
New forecast layout! Learn more

10-Day Weather Forecast

Advertisements
Track Severe Weather on mobile